createdAt,value
2022-10-24T00:00:37.885Z,85.17
2022-10-24T00:01:38.026Z,85.28
2022-10-24T00:02:38.397Z,85.28
2022-10-24T00:03:38.604Z,85.28
2022-10-24T00:04:38.874Z,85.28
2022-10-24T00:05:39.199Z,85.17
2022-10-24T00:06:39.509Z,85.17
2022-10-24T00:07:39.850Z,85.38
2022-10-24T00:08:40.157Z,85.28
2022-10-24T00:09:40.426Z,85.17
2022-10-24T00:10:40.807Z,85.28
2022-10-24T00:11:41.078Z,85.28
2022-10-24T00:12:41.583Z,85.28
2022-10-24T00:13:41.746Z,85.38
2022-10-24T00:14:41.889Z,85.28
2022-10-24T00:15:42.212Z,85.17
2022-10-24T00:16:42.573Z,85.28
2022-10-24T00:17:42.833Z,85.17
2022-10-24T00:18:43.217Z,85.17
2022-10-24T00:19:43.482Z,85.17
2022-10-24T00:21:44.112Z,85.38
2022-10-24T00:22:44.518Z,85.62
2022-10-24T00:23:44.651Z,85.42
2022-10-24T00:24:44.863Z,85.42
2022-10-24T00:25:45.262Z,85.38
2022-10-24T00:26:45.432Z,85.31
2022-10-24T00:27:45.726Z,85.22
2022-10-24T00:28:46.041Z,85.31
2022-10-24T00:29:46.291Z,85.22
2022-10-24T00:30:46.589Z,85.31
2022-10-24T00:31:46.874Z,85.31
2022-10-24T00:32:47.379Z,85.02
2022-10-24T00:33:47.521Z,84.91
2022-10-24T00:34:47.796Z,84.81
2022-10-24T00:35:48.208Z,84.67
2022-10-24T00:36:48.397Z,84.67
2022-10-24T00:37:48.706Z,84.47
2022-10-24T00:38:49.017Z,84.27
2022-10-24T00:39:49.298Z,83.97
2022-10-24T00:40:49.744Z,83.97
2022-10-24T00:41:49.922Z,83.87
2022-10-24T00:42:50.267Z,83.76
2022-10-24T00:43:50.587Z,83.66
2022-10-24T00:44:50.892Z,83.56
2022-10-24T00:45:51.217Z,83.36
2022-10-24T00:46:51.501Z,83.36
2022-10-24T00:47:51.811Z,83.46
2022-10-24T00:48:52.096Z,83.16
2022-10-24T00:49:52.440Z,83.16
2022-10-24T00:50:52.728Z,83.26
2022-10-24T00:51:53.083Z,83.06
2022-10-24T00:52:53.376Z,83.06
2022-10-24T00:53:53.732Z,82.92
2022-10-24T00:54:53.920Z,83.16
2022-10-24T00:55:54.217Z,83.16
2022-10-24T00:56:54.553Z,83.16
2022-10-24T00:57:54.730Z,83.36
2022-10-24T00:58:55.001Z,83.36
2022-10-24T00:59:55.355Z,83.36
2022-10-24T01:00:55.658Z,83.46
2022-10-24T01:01:55.913Z,83.66
2022-10-24T01:02:56.243Z,83.66
2022-10-24T01:03:56.596Z,83.66
2022-10-24T01:04:56.875Z,83.76
2022-10-24T01:05:57.204Z,83.76
2022-10-24T01:06:57.502Z,83.76
2022-10-24T01:07:57.776Z,83.87
2022-10-24T01:08:58.193Z,83.76
2022-10-24T01:09:58.327Z,83.66
2022-10-24T01:10:58.706Z,83.56
2022-10-24T01:11:59.054Z,83.66
2022-10-24T01:12:59.152Z,83.56
2022-10-24T01:13:59.482Z,83.46
2022-10-24T01:14:59.794Z,83.60
2022-10-24T01:16:00.079Z,83.70
2022-10-24T01:17:00.355Z,83.66
2022-10-24T01:18:00.616Z,83.50
2022-10-24T01:19:00.990Z,83.36
2022-10-24T01:20:01.267Z,83.40
2022-10-24T01:21:01.586Z,83.36
2022-10-24T01:22:01.856Z,83.36
2022-10-24T01:23:02.186Z,83.30
2022-10-24T01:24:02.473Z,83.20
2022-10-24T01:25:02.858Z,83.30
2022-10-24T01:26:03.036Z,83.10
2022-10-24T01:27:03.390Z,83.10
2022-10-24T01:28:03.562Z,82.90
2022-10-24T01:29:03.956Z,82.90
2022-10-24T01:30:04.252Z,82.90
2022-10-24T01:31:04.519Z,82.79
2022-10-24T01:32:04.854Z,82.79
2022-10-24T01:33:05.196Z,82.70
2022-10-24T01:34:05.370Z,82.76
2022-10-24T01:35:05.703Z,82.70
2022-10-24T01:36:05.968Z,82.79
2022-10-24T01:37:06.274Z,82.90
2022-10-24T01:38:06.597Z,82.90
2022-10-24T01:39:06.872Z,82.90
2022-10-24T01:40:07.123Z,82.90
2022-10-24T01:41:07.434Z,82.70
2022-10-24T01:42:07.680Z,82.79
2022-10-24T01:43:08.009Z,82.70
2022-10-24T01:44:08.359Z,82.70
2022-10-24T01:45:08.635Z,82.70
2022-10-24T01:46:08.969Z,82.59
2022-10-24T01:47:09.594Z,82.50
2022-10-24T01:48:09.554Z,82.39
2022-10-24T01:49:09.873Z,82.39
2022-10-24T01:50:10.206Z,82.29
2022-10-24T01:51:10.922Z,82.29
2022-10-24T01:52:10.825Z,82.19
2022-10-24T01:53:11.041Z,82.09
2022-10-24T01:54:11.323Z,82.29
2022-10-24T01:55:11.622Z,82.19
2022-10-24T01:56:11.931Z,82.09
2022-10-24T01:57:12.194Z,82.09
2022-10-24T01:58:12.585Z,81.99
2022-10-24T01:59:12.916Z,81.89
2022-10-24T02:00:13.184Z,81.89
2022-10-24T02:01:13.616Z,81.59
2022-10-24T02:02:13.731Z,81.68
2022-10-24T02:03:14.086Z,81.48
2022-10-24T02:04:14.351Z,81.28
2022-10-24T02:05:14.727Z,81.35
2022-10-24T02:06:14.905Z,81.24
2022-10-24T02:07:15.173Z,81.15
2022-10-24T02:08:15.482Z,81.15
2022-10-24T02:09:15.781Z,81.15
2022-10-24T02:10:16.110Z,81.04
2022-10-24T02:11:16.431Z,81.04
2022-10-24T02:12:16.828Z,80.94
2022-10-24T02:13:17.056Z,80.74
2022-10-24T02:14:17.403Z,80.64
2022-10-24T02:15:17.569Z,80.54
2022-10-24T02:16:17.878Z,80.44
2022-10-24T02:17:18.273Z,80.33
2022-10-24T02:18:18.565Z,80.33
2022-10-24T02:19:18.891Z,80.24
2022-10-24T02:20:19.200Z,80.24
2022-10-24T02:21:19.485Z,80.13
2022-10-24T02:22:19.899Z,80.13
2022-10-24T02:23:20.036Z,79.93
2022-10-24T02:24:20.393Z,80.04
2022-10-24T02:25:20.685Z,80.04
2022-10-24T02:26:21.005Z,79.83
2022-10-24T02:27:21.318Z,80.04
2022-10-24T02:28:21.609Z,80.04
2022-10-24T02:29:21.947Z,80.04
2022-10-24T02:30:22.626Z,79.93
2022-10-24T02:31:22.483Z,79.93
2022-10-24T02:32:22.799Z,79.83
2022-10-24T02:33:23.073Z,79.83
2022-10-24T02:34:23.382Z,79.83
2022-10-24T02:35:23.725Z,79.73
2022-10-24T02:36:24.009Z,79.63
2022-10-24T02:37:24.333Z,79.63
2022-10-24T02:38:25.044Z,79.83
2022-10-24T02:39:24.878Z,79.60
2022-10-24T02:40:25.204Z,79.63
2022-10-24T02:41:25.564Z,79.53
2022-10-24T02:42:25.929Z,79.49
2022-10-24T02:43:26.095Z,79.43
2022-10-24T02:44:26.383Z,79.43
2022-10-24T02:45:26.668Z,79.43
2022-10-24T02:46:26.969Z,79.29
2022-10-24T02:47:27.397Z,79.33
2022-10-24T02:48:27.588Z,79.13
2022-10-24T02:49:27.863Z,79.23
2022-10-24T02:50:28.114Z,79.19
2022-10-24T02:51:28.420Z,78.89
2022-10-24T02:52:28.774Z,78.69
2022-10-24T02:53:28.965Z,78.69
2022-10-24T02:54:29.328Z,78.39
2022-10-24T02:55:29.653Z,78.49
2022-10-24T02:56:29.968Z,78.39
2022-10-24T02:57:30.278Z,78.28
2022-10-24T02:58:30.594Z,78.39
2022-10-24T02:59:30.893Z,78.39
2022-10-24T03:00:31.240Z,78.19
2022-10-24T03:01:31.420Z,78.19
2022-10-24T03:02:31.737Z,78.19
2022-10-24T03:03:32.065Z,77.98
2022-10-24T03:04:32.272Z,77.88
2022-10-24T03:05:32.521Z,77.68
2022-10-24T03:06:32.765Z,77.68
2022-10-24T03:07:33.147Z,77.88
2022-10-24T03:08:33.312Z,77.78
2022-10-24T03:09:33.655Z,77.78
2022-10-24T03:10:33.824Z,77.68
2022-10-24T03:11:34.112Z,77.58
2022-10-24T03:12:34.409Z,77.68
2022-10-24T03:13:34.700Z,77.58
2022-10-24T03:14:34.925Z,77.78
2022-10-24T03:15:35.298Z,77.48
2022-10-24T03:16:35.601Z,77.58
2022-10-24T03:17:35.878Z,77.58
2022-10-24T03:18:36.218Z,77.38
2022-10-24T03:19:36.890Z,77.38
2022-10-24T03:20:36.735Z,77.38
2022-10-24T03:21:36.966Z,77.38
2022-10-24T03:22:37.330Z,77.17
2022-10-24T03:23:37.726Z,77.17
2022-10-24T03:24:44.402Z,77.17
2022-10-24T03:25:39.181Z,77.04
2022-10-24T03:26:38.498Z,76.94
2022-10-24T03:27:38.803Z,76.94
2022-10-24T03:28:39.075Z,76.84
2022-10-24T03:29:39.396Z,76.34
2022-10-24T03:30:39.737Z,76.54
2022-10-24T03:31:39.896Z,76.54
2022-10-24T03:32:40.223Z,76.43
2022-10-24T03:33:40.556Z,76.64
2022-10-24T03:34:40.821Z,76.54
2022-10-24T03:35:41.166Z,76.34
2022-10-24T03:36:41.458Z,76.54
2022-10-24T03:37:41.756Z,76.54
2022-10-24T03:38:42.034Z,76.54
2022-10-24T03:39:42.359Z,76.74
2022-10-24T03:40:42.767Z,76.64
2022-10-24T03:41:42.957Z,76.54
2022-10-24T03:42:43.572Z,76.57
2022-10-24T03:43:43.584Z,76.77
2022-10-24T03:44:43.872Z,76.77
2022-10-24T03:45:44.186Z,76.77
2022-10-24T03:46:44.593Z,76.87
2022-10-24T03:47:44.757Z,76.97
2022-10-24T03:48:45.120Z,76.77
2022-10-24T03:49:45.473Z,76.97
2022-10-24T03:50:45.752Z,76.97
2022-10-24T03:51:46.013Z,76.97
2022-10-24T03:52:47.693Z,77.08
2022-10-24T03:53:47.456Z,76.97
2022-10-24T03:54:46.809Z,76.97
2022-10-24T03:55:47.111Z,76.97
2022-10-24T03:56:47.414Z,76.97
2022-10-24T03:57:47.904Z,77.08
2022-10-24T03:58:48.010Z,77.08
2022-10-24T03:59:48.162Z,76.97
2022-10-24T04:00:48.455Z,77.08
2022-10-24T04:01:48.753Z,77.17
2022-10-24T04:02:48.926Z,76.87
2022-10-24T04:03:49.231Z,76.97
2022-10-24T04:04:49.507Z,77.17
2022-10-24T04:05:49.756Z,77.08
2022-10-24T04:06:50.034Z,76.97
2022-10-24T04:07:50.311Z,76.97
2022-10-24T04:08:50.617Z,76.87
2022-10-24T04:09:50.957Z,76.97
2022-10-24T04:10:51.255Z,76.97
2022-10-24T04:11:51.511Z,77.08
2022-10-24T04:12:51.861Z,77.08
2022-10-24T04:13:52.220Z,76.87
2022-10-24T04:14:52.422Z,76.87
2022-10-24T04:15:52.655Z,76.87
2022-10-24T04:16:52.959Z,76.87
2022-10-24T04:17:53.163Z,76.87
2022-10-24T04:18:53.398Z,76.87
2022-10-24T04:19:53.753Z,76.67
2022-10-24T04:20:54.044Z,76.77
2022-10-24T04:21:54.352Z,76.87
2022-10-24T04:22:54.577Z,76.87
2022-10-24T04:23:54.888Z,76.97
2022-10-24T04:24:55.203Z,76.87
2022-10-24T04:25:55.569Z,76.87
2022-10-24T04:26:55.821Z,76.97
2022-10-24T04:27:56.036Z,76.97
2022-10-24T04:28:56.272Z,77.08
2022-10-24T04:29:56.529Z,77.17
2022-10-24T04:30:57.236Z,77.17
2022-10-24T04:31:57.077Z,77.08
2022-10-24T04:32:57.418Z,77.17
2022-10-24T04:33:57.701Z,77.17
2022-10-24T04:34:58.034Z,77.38
2022-10-24T04:35:58.283Z,77.28
2022-10-24T04:36:58.649Z,77.28
2022-10-24T04:37:58.798Z,77.38
2022-10-24T04:39:59.484Z,77.38
2022-10-24T04:40:59.775Z,77.38
2022-10-24T04:42:00.145Z,77.28
2022-10-24T04:43:01.427Z,77.38
2022-10-24T04:44:00.691Z,77.28
2022-10-24T04:45:01.061Z,77.38
2022-10-24T04:46:01.337Z,77.48
2022-10-24T04:47:01.678Z,77.58
2022-10-24T04:48:02.002Z,77.58
2022-10-24T04:49:02.288Z,77.78
2022-10-24T04:50:03.010Z,77.68
2022-10-24T04:51:02.837Z,77.78
2022-10-24T04:52:03.144Z,77.68
2022-10-24T04:53:03.475Z,77.78
2022-10-24T04:54:03.739Z,77.88
2022-10-24T04:55:04.114Z,77.98
2022-10-24T04:56:04.389Z,77.78
2022-10-24T04:57:04.580Z,77.78
2022-10-24T04:58:04.888Z,77.88
2022-10-24T04:59:05.146Z,77.92
2022-10-24T05:00:05.396Z,78.02
2022-10-24T05:01:05.696Z,78.22
2022-10-24T05:02:05.884Z,78.22
2022-10-24T05:03:06.198Z,78.22
2022-10-24T05:04:06.548Z,78.22
2022-10-24T05:05:06.771Z,78.22
2022-10-24T05:06:07.129Z,78.32
2022-10-24T05:07:07.411Z,78.32
2022-10-24T05:08:07.700Z,78.22
2022-10-24T05:09:07.955Z,78.22
2022-10-24T05:10:08.280Z,78.22
2022-10-24T05:11:08.600Z,78.32
2022-10-24T05:12:08.825Z,78.32
2022-10-24T05:13:09.098Z,78.22
2022-10-24T05:14:09.339Z,78.22
2022-10-24T05:15:09.606Z,78.22
2022-10-24T05:16:09.903Z,78.32
2022-10-24T05:17:10.148Z,78.22
2022-10-24T05:18:10.497Z,78.12
2022-10-24T05:19:10.686Z,78.02
2022-10-24T05:20:10.988Z,77.92
2022-10-24T05:21:11.292Z,78.12
2022-10-24T05:22:11.540Z,78.32
2022-10-24T05:23:11.869Z,78.32
2022-10-24T05:24:12.100Z,78.42
2022-10-24T05:25:12.403Z,78.46
2022-10-24T05:26:12.728Z,78.56
2022-10-24T05:27:13.058Z,78.56
2022-10-24T05:28:13.314Z,78.56
2022-10-24T05:29:13.546Z,78.63
2022-10-24T05:30:13.853Z,78.56
2022-10-24T05:31:14.237Z,78.56
2022-10-24T05:32:14.390Z,78.66
2022-10-24T05:33:14.640Z,78.66
2022-10-24T05:34:14.922Z,78.66
2022-10-24T05:35:15.275Z,78.66
2022-10-24T05:36:15.597Z,78.66
2022-10-24T05:37:15.806Z,78.76
2022-10-24T05:38:16.225Z,78.96
2022-10-24T05:39:16.482Z,79.06
2022-10-24T05:40:16.698Z,78.96
2022-10-24T05:41:16.941Z,79.06
2022-10-24T05:42:17.255Z,78.96
2022-10-24T05:43:17.633Z,78.96
2022-10-24T05:44:17.918Z,79.06
2022-10-24T05:45:18.320Z,79.06
2022-10-24T05:46:18.575Z,79.06
2022-10-24T05:47:18.793Z,79.06
2022-10-24T05:48:19.077Z,79.06
2022-10-24T05:49:19.367Z,78.96
2022-10-24T05:50:19.698Z,79.06
2022-10-24T05:51:19.890Z,78.92
2022-10-24T05:52:20.132Z,78.72
2022-10-24T05:53:20.456Z,78.92
2022-10-24T05:54:20.817Z,78.96
2022-10-24T05:55:21.080Z,79.06
2022-10-24T05:56:21.334Z,79.06
2022-10-24T05:57:21.612Z,79.16
2022-10-24T05:58:21.833Z,79.27
2022-10-24T05:59:22.207Z,79.27
2022-10-24T06:00:22.458Z,79.23
2022-10-24T06:01:22.719Z,79.23
2022-10-24T06:02:22.987Z,79.23
2022-10-24T06:03:23.299Z,79.36
2022-10-24T06:04:23.522Z,79.57
2022-10-24T06:05:23.833Z,79.57
2022-10-24T06:06:24.047Z,79.77
2022-10-24T06:07:24.253Z,79.67
2022-10-24T06:08:24.535Z,79.87
2022-10-24T06:09:24.795Z,79.97
2022-10-24T06:10:25.079Z,80.07
2022-10-24T06:11:25.332Z,80.07
2022-10-24T06:12:25.561Z,80.07
2022-10-24T06:13:25.930Z,80.07
2022-10-24T06:14:26.155Z,79.97
2022-10-24T06:15:26.535Z,79.93
2022-10-24T06:16:26.803Z,79.83
2022-10-24T06:17:27.062Z,79.73
2022-10-24T06:18:27.298Z,79.53
2022-10-24T06:19:27.526Z,79.43
2022-10-24T06:20:27.826Z,79.33
2022-10-24T06:21:28.034Z,79.23
2022-10-24T06:22:28.463Z,79.33
2022-10-24T06:23:28.648Z,79.33
2022-10-24T06:24:28.901Z,79.29
2022-10-24T06:25:29.193Z,79.29
2022-10-24T06:26:29.413Z,79.19
2022-10-24T06:27:30.128Z,79.29
2022-10-24T06:28:29.904Z,79.29
2022-10-24T06:29:30.331Z,79.39
2022-10-24T06:30:30.555Z,79.39
2022-10-24T06:31:30.766Z,79.49
2022-10-24T06:32:31.022Z,79.29
2022-10-24T06:33:31.250Z,79.29
2022-10-24T06:34:31.569Z,79.39
2022-10-24T06:35:31.837Z,79.39
2022-10-24T06:36:32.199Z,79.60
2022-10-24T06:37:32.325Z,79.60
2022-10-24T06:38:32.612Z,79.80
2022-10-24T06:39:32.823Z,79.69
2022-10-24T06:40:33.195Z,79.69
2022-10-24T06:41:33.478Z,79.60
2022-10-24T06:42:33.738Z,79.60
2022-10-24T06:43:34.018Z,79.49
2022-10-24T06:44:34.273Z,79.60
2022-10-24T06:45:34.534Z,79.69
2022-10-24T06:46:34.774Z,79.49
2022-10-24T06:47:35.058Z,79.69
2022-10-24T06:48:35.289Z,79.80
2022-10-24T06:49:35.550Z,79.80
2022-10-24T06:50:35.878Z,79.90
2022-10-24T06:51:36.072Z,79.90
2022-10-24T06:52:36.455Z,79.69
2022-10-24T06:53:36.669Z,80.00
2022-10-24T06:54:36.910Z,80.10
2022-10-24T06:55:37.190Z,80.00
2022-10-24T06:56:37.486Z,80.13
2022-10-24T06:57:37.830Z,80.30
2022-10-24T06:58:38.028Z,80.33
2022-10-24T06:59:38.268Z,80.33
2022-10-24T07:00:38.564Z,80.30
2022-10-24T07:01:38.929Z,80.24
2022-10-24T07:02:39.051Z,80.54
2022-10-24T07:03:39.349Z,80.44
2022-10-24T07:04:39.680Z,80.54
2022-10-24T07:05:40.001Z,80.64
2022-10-24T07:06:40.200Z,80.74
2022-10-24T07:07:40.444Z,80.84
2022-10-24T07:08:40.795Z,81.04
2022-10-24T07:09:41.056Z,81.15
2022-10-24T07:10:41.270Z,81.45
2022-10-24T07:11:41.606Z,81.55
2022-10-24T07:12:41.965Z,81.65
2022-10-24T07:13:42.169Z,81.55
2022-10-24T07:14:42.365Z,81.65
2022-10-24T07:15:42.651Z,81.75
2022-10-24T07:16:42.923Z,81.75
2022-10-24T07:17:43.115Z,81.85
2022-10-24T07:18:43.365Z,81.95
2022-10-24T07:19:43.657Z,81.95
2022-10-24T07:20:43.949Z,82.05
2022-10-24T07:21:44.205Z,82.05
2022-10-24T07:22:44.912Z,82.25
2022-10-24T07:23:44.795Z,82.25
2022-10-24T07:24:46.106Z,82.35
2022-10-24T07:25:45.469Z,82.35
2022-10-24T07:26:45.654Z,82.35
2022-10-24T07:27:45.931Z,82.45
2022-10-24T07:28:46.196Z,82.45
2022-10-24T07:29:46.464Z,82.45
2022-10-24T07:30:46.760Z,82.76
2022-10-24T07:31:46.990Z,82.86
2022-10-24T07:32:47.510Z,82.86
2022-10-24T07:33:47.616Z,82.86
2022-10-24T07:34:47.882Z,82.96
2022-10-24T07:35:48.298Z,83.06
2022-10-24T07:36:48.476Z,83.16
2022-10-24T07:37:48.907Z,83.16
2022-10-24T07:38:48.946Z,83.26
2022-10-24T07:39:49.189Z,83.46
2022-10-24T07:40:49.410Z,83.66
2022-10-24T07:41:49.763Z,83.66
2022-10-24T07:42:50.056Z,83.66
2022-10-24T07:43:50.222Z,83.76
2022-10-24T07:44:50.572Z,83.76
2022-10-24T07:45:51.865Z,83.66
2022-10-24T07:46:51.082Z,83.56
2022-10-24T07:47:51.399Z,83.76
2022-10-24T07:48:51.631Z,83.56
2022-10-24T07:49:51.836Z,83.76
2022-10-24T07:50:52.239Z,83.87
2022-10-24T07:51:52.533Z,83.76
2022-10-24T07:52:52.832Z,83.87
2022-10-24T07:53:53.049Z,83.76
2022-10-24T07:54:53.371Z,83.87
2022-10-24T07:55:53.588Z,83.87
2022-10-24T07:56:54.178Z,84.07
2022-10-24T07:57:54.098Z,83.97
2022-10-24T07:58:54.372Z,83.76
2022-10-24T07:59:54.718Z,83.76
2022-10-24T08:00:54.889Z,84.07
2022-10-24T08:01:55.145Z,84.07
2022-10-24T08:02:55.423Z,84.07
2022-10-24T08:03:55.708Z,83.76
2022-10-24T08:04:56.033Z,83.97
2022-10-24T08:05:56.361Z,83.87
2022-10-24T08:06:57.157Z,83.87
2022-10-24T08:08:12.069Z,83.87
2022-10-24T08:08:58.188Z,83.97
2022-10-24T08:09:57.360Z,84.07
2022-10-24T08:10:57.716Z,83.97
2022-10-24T08:11:57.919Z,84.07
2022-10-24T08:12:58.202Z,83.97
2022-10-24T08:13:58.391Z,84.07
2022-10-24T08:14:58.807Z,84.37
2022-10-24T08:15:59.070Z,84.17
2022-10-24T08:16:59.314Z,84.07
2022-10-24T08:17:59.524Z,83.97
2022-10-24T08:18:59.877Z,84.07
2022-10-24T08:20:00.171Z,84.03
2022-10-24T08:21:00.375Z,83.83
2022-10-24T08:22:00.597Z,83.93
2022-10-24T08:23:00.851Z,83.93
2022-10-24T08:24:01.092Z,83.72
2022-10-24T08:25:01.356Z,83.83
2022-10-24T08:26:01.578Z,83.72
2022-10-24T08:27:01.929Z,84.13
2022-10-24T08:28:04.033Z,84.03
2022-10-24T08:29:02.464Z,83.97
2022-10-24T08:30:02.695Z,84.17
2022-10-24T08:31:02.953Z,84.37
2022-10-24T08:32:03.155Z,84.47
2022-10-24T08:33:03.435Z,84.47
2022-10-24T08:34:03.733Z,84.57
2022-10-24T08:35:03.975Z,84.67
2022-10-24T08:36:04.283Z,84.57
2022-10-24T08:37:04.486Z,84.57
2022-10-24T08:38:04.713Z,84.67
2022-10-24T08:39:05.044Z,84.57
2022-10-24T08:40:05.263Z,84.77
2022-10-24T08:41:05.553Z,84.67
2022-10-24T08:42:05.742Z,84.77
2022-10-24T08:43:05.969Z,84.57
2022-10-24T08:44:06.302Z,84.67
2022-10-24T08:45:06.528Z,84.67
2022-10-24T08:46:06.764Z,84.57
2022-10-24T08:47:07.057Z,84.27
2022-10-24T08:48:07.279Z,84.17
2022-10-24T08:49:07.608Z,84.27
2022-10-24T08:50:07.855Z,84.37
2022-10-24T08:51:08.107Z,84.37
2022-10-24T08:52:08.400Z,84.27
2022-10-24T08:53:08.652Z,84.27
2022-10-24T08:54:08.897Z,84.47
2022-10-24T08:55:13.451Z,84.47
2022-10-24T08:56:10.437Z,84.77
2022-10-24T08:57:09.794Z,84.57
2022-10-24T08:58:10.068Z,84.37
2022-10-24T08:59:10.302Z,84.37
2022-10-24T09:00:10.657Z,84.03
2022-10-24T09:01:10.966Z,83.93
2022-10-24T09:02:13.661Z,83.72
2022-10-24T09:03:11.466Z,83.93
2022-10-24T09:04:11.707Z,83.72
2022-10-24T09:05:11.972Z,83.52
2022-10-24T09:06:12.231Z,83.72
2022-10-24T09:07:12.540Z,83.32
2022-10-24T09:08:12.798Z,83.52
2022-10-24T09:09:13.075Z,82.98
2022-10-24T09:10:13.336Z,82.88
2022-10-24T09:11:13.642Z,82.78
2022-10-24T09:12:13.876Z,83.18
2022-10-24T09:13:14.248Z,83.18
2022-10-24T09:14:14.387Z,83.18
2022-10-24T09:15:14.663Z,83.28
2022-10-24T09:16:15.062Z,83.39
2022-10-24T09:17:15.263Z,83.39
2022-10-24T09:18:15.485Z,83.18
2022-10-24T09:19:15.767Z,82.98
2022-10-24T09:20:16.057Z,82.84
2022-10-24T09:21:16.313Z,82.88
2022-10-24T09:22:16.513Z,82.78
2022-10-24T09:23:16.776Z,83.08
2022-10-24T09:24:17.118Z,83.18
2022-10-24T09:25:17.348Z,82.98
2022-10-24T09:26:17.639Z,82.94
2022-10-24T09:27:17.958Z,82.64
2022-10-24T09:28:18.314Z,82.54
2022-10-24T09:29:18.491Z,82.64
2022-10-24T09:30:18.911Z,82.64
2022-10-24T09:31:19.207Z,82.54
2022-10-24T09:32:19.317Z,82.44
2022-10-24T09:33:19.574Z,82.14
2022-10-24T09:34:19.832Z,82.04
2022-10-24T09:35:20.120Z,82.14
2022-10-24T09:36:20.971Z,82.44
2022-10-24T09:38:20.964Z,82.98
2022-10-24T09:39:21.226Z,82.98
2022-10-24T09:40:21.625Z,82.88
2022-10-24T09:41:21.778Z,82.34
2022-10-24T09:42:22.054Z,82.24
2022-10-24T09:43:22.317Z,82.04
2022-10-24T09:44:22.644Z,82.34
2022-10-24T09:45:22.827Z,82.24
2022-10-24T09:46:23.086Z,82.24
2022-10-24T09:47:23.354Z,82.24
2022-10-24T09:48:26.180Z,81.99
2022-10-24T09:49:24.965Z,81.79
2022-10-24T09:50:24.237Z,81.59
2022-10-24T09:51:24.519Z,81.49
2022-10-24T09:52:24.768Z,81.49
2022-10-24T09:53:25.012Z,81.29
2022-10-24T09:54:25.305Z,81.35
2022-10-24T09:55:25.649Z,80.99
2022-10-24T09:56:25.831Z,81.29
2022-10-24T09:57:28.087Z,81.39
2022-10-24T09:58:27.449Z,81.39
2022-10-24T09:59:26.715Z,81.49
2022-10-24T10:00:26.992Z,81.59
2022-10-24T10:01:27.358Z,81.79
2022-10-24T10:02:27.537Z,81.70
2022-10-24T10:03:27.772Z,81.46
2022-10-24T10:04:28.084Z,81.29
2022-10-24T10:05:28.307Z,81.39
2022-10-24T10:06:28.546Z,81.29
2022-10-24T10:07:28.802Z,81.09
2022-10-24T10:08:29.124Z,81.09
2022-10-24T10:09:29.417Z,81.05
2022-10-24T10:10:29.741Z,80.95
2022-10-24T10:11:29.995Z,81.15
2022-10-24T10:12:30.309Z,80.85
2022-10-24T10:13:30.605Z,80.75
2022-10-24T10:14:30.918Z,80.75
2022-10-24T10:15:31.154Z,80.65
2022-10-24T10:16:31.389Z,80.75
2022-10-24T10:17:31.657Z,80.55
2022-10-24T10:18:31.900Z,80.55
2022-10-24T10:19:32.206Z,80.55
2022-10-24T10:20:32.469Z,80.55
2022-10-24T10:21:32.928Z,80.65
2022-10-24T10:22:33.063Z,80.85
2022-10-24T10:23:33.309Z,80.85
2022-10-24T10:24:33.552Z,80.75
2022-10-24T10:25:33.801Z,80.45
2022-10-24T10:26:34.058Z,80.45
2022-10-24T10:27:34.333Z,80.85
2022-10-24T10:28:34.671Z,80.95
2022-10-24T10:29:34.902Z,80.95
2022-10-24T10:30:35.147Z,80.45
2022-10-24T10:31:35.392Z,80.55
2022-10-24T10:32:39.541Z,80.61
2022-10-24T10:34:36.252Z,80.07
2022-10-24T10:35:36.527Z,79.67
2022-10-24T10:36:36.865Z,79.67
2022-10-24T10:37:37.083Z,79.67
2022-10-24T10:38:37.332Z,79.87
2022-10-24T10:39:40.780Z,80.11
2022-10-24T10:40:38.846Z,80.31
2022-10-24T10:41:38.384Z,80.51
2022-10-24T10:42:38.513Z,80.51
2022-10-24T10:43:38.763Z,80.21
2022-10-24T10:44:39.177Z,80.21
2022-10-24T10:45:39.353Z,80.41
2022-10-24T10:46:39.597Z,80.37
2022-10-24T10:47:39.844Z,78.19
2022-10-24T10:48:40.136Z,77.28
2022-10-24T10:49:40.368Z,76.85
2022-10-24T10:50:40.619Z,76.25
2022-10-24T10:51:40.962Z,77.09
2022-10-24T10:52:41.108Z,76.98
2022-10-24T10:53:41.359Z,77.69
2022-10-24T10:54:41.625Z,77.92
2022-10-24T10:55:41.858Z,77.79
2022-10-24T10:56:42.124Z,77.59
2022-10-24T10:57:42.354Z,77.72
2022-10-24T10:58:42.779Z,78.12
2022-10-24T10:59:42.975Z,78.33
2022-10-24T11:00:43.192Z,78.53
2022-10-24T11:01:43.592Z,76.98
2022-10-24T11:02:44.753Z,76.65
2022-10-24T11:03:44.141Z,76.89
2022-10-24T11:04:44.400Z,76.75
2022-10-24T11:05:44.602Z,76.89
2022-10-24T11:06:44.881Z,77.09
2022-10-24T11:07:45.359Z,77.09
2022-10-24T11:08:45.406Z,76.89
2022-10-24T11:09:45.649Z,77.19
2022-10-24T11:10:45.909Z,77.32
2022-10-24T11:11:46.188Z,77.62
2022-10-24T11:12:46.454Z,77.62
2022-10-24T11:13:47.142Z,77.72
2022-10-24T11:14:47.014Z,77.32
2022-10-24T11:15:47.205Z,77.19
2022-10-24T11:16:47.496Z,76.25
2022-10-24T11:17:48.051Z,75.51
2022-10-24T11:18:48.084Z,75.41
2022-10-24T11:19:48.302Z,75.41
2022-10-24T11:20:48.610Z,75.31
2022-10-24T11:21:48.874Z,75.51
2022-10-24T11:22:49.114Z,75.04
2022-10-24T11:23:49.407Z,73.39
2022-10-24T11:24:49.697Z,73.00
2022-10-24T11:25:50.074Z,71.12
2022-10-24T11:26:50.137Z,69.99
2022-10-24T11:27:50.497Z,70.29
2022-10-24T11:28:50.648Z,69.96
2022-10-24T11:29:50.884Z,69.23
2022-10-24T11:30:51.162Z,67.99
2022-10-24T11:31:51.917Z,68.10
2022-10-24T11:32:51.770Z,67.66
2022-10-24T11:33:52.016Z,67.43
2022-10-24T11:34:52.273Z,66.30
2022-10-24T11:35:52.529Z,65.57
2022-10-24T11:36:55.669Z,65.41
2022-10-24T11:37:53.147Z,66.13
2022-10-24T11:38:53.401Z,66.96
2022-10-24T11:39:53.711Z,67.66
2022-10-24T11:40:57.756Z,67.03
2022-10-24T11:41:55.234Z,66.40
2022-10-24T11:42:54.521Z,64.81
2022-10-24T11:43:54.761Z,63.39
2022-10-24T11:44:54.996Z,62.34
2022-10-24T11:45:55.240Z,61.51
2022-10-24T11:46:55.491Z,61.11
2022-10-24T11:47:55.741Z,60.82
2022-10-24T11:48:55.987Z,61.64
2022-10-24T11:49:56.258Z,63.02
2022-10-24T11:50:56.491Z,63.82
2022-10-24T11:51:56.770Z,63.82
2022-10-24T11:52:57.033Z,63.72
2022-10-24T11:53:57.281Z,62.76
2022-10-24T11:54:57.567Z,63.09
2022-10-24T11:55:57.868Z,63.19
2022-10-24T11:56:58.158Z,62.69
2022-10-24T11:57:58.408Z,62.16
2022-10-24T11:58:59.736Z,61.11
2022-10-24T11:59:58.892Z,60.69
2022-10-24T12:00:59.241Z,60.39
2022-10-24T12:01:59.449Z,61.01
2022-10-24T12:02:59.807Z,61.21
2022-10-24T12:04:00.082Z,60.91
2022-10-24T12:05:00.298Z,62.29
2022-10-24T12:06:00.566Z,62.99
2022-10-24T12:07:00.840Z,62.89
2022-10-24T12:08:01.179Z,62.37
2022-10-24T12:09:01.419Z,62.16
2022-10-24T12:10:01.642Z,62.29
2022-10-24T12:11:01.948Z,62.13
2022-10-24T12:12:02.192Z,64.18
2022-10-24T12:13:02.518Z,64.48
2022-10-24T12:15:03.037Z,65.64
2022-10-24T12:16:03.382Z,66.00
2022-10-24T12:17:03.589Z,65.27
2022-10-24T12:18:03.957Z,64.54
2022-10-24T12:19:04.186Z,64.22
2022-10-24T12:20:04.457Z,63.49
2022-10-24T12:21:04.680Z,63.62
2022-10-24T12:22:04.948Z,63.29
2022-10-24T12:23:05.760Z,62.66
2022-10-24T12:24:05.472Z,61.61
2022-10-24T12:25:05.762Z,60.71
2022-10-24T12:26:06.028Z,60.58
2022-10-24T12:27:06.260Z,59.59
2022-10-24T12:28:06.551Z,60.74
2022-10-24T12:29:06.809Z,62.52
2022-10-24T12:30:07.070Z,63.35
2022-10-24T12:31:07.313Z,64.84
2022-10-24T12:32:07.593Z,65.87
2022-10-24T12:33:07.921Z,66.80
2022-10-24T12:34:08.146Z,67.30
2022-10-24T12:36:09.701Z,68.03
2022-10-24T12:37:08.984Z,68.23
2022-10-24T12:38:09.280Z,68.66
2022-10-24T12:39:09.518Z,69.29
2022-10-24T12:40:09.810Z,69.19
2022-10-24T12:41:10.077Z,69.79
2022-10-24T12:42:10.298Z,69.89
2022-10-24T12:43:10.560Z,70.09
2022-10-24T12:44:10.824Z,69.99
2022-10-24T12:45:11.069Z,69.56
2022-10-24T12:46:13.326Z,69.66
2022-10-24T12:47:11.609Z,69.23
2022-10-24T12:48:11.873Z,68.82
2022-10-24T12:49:12.136Z,68.33
2022-10-24T12:50:12.390Z,68.52
2022-10-24T12:51:12.636Z,68.52
2022-10-24T12:52:12.908Z,67.26
2022-10-24T12:53:13.609Z,66.66
2022-10-24T12:54:13.460Z,66.77
2022-10-24T12:55:13.747Z,66.43
2022-10-24T12:56:14.027Z,65.91
2022-10-24T12:57:14.240Z,65.70
2022-10-24T12:58:14.523Z,66.10
2022-10-24T12:59:14.787Z,66.10
2022-10-24T13:00:15.087Z,65.57
2022-10-24T13:01:15.441Z,66.24
2022-10-24T13:02:15.904Z,66.33